Time;durP1;ratioP1;P1;durP2;ratioP2;P2;SDS_P1;SDS_P2;PMS_P1;PMS_P2;Temp;Humidity;BMP_temperature;BMP_pressure;BME280_temperature;BME280_humidity;BME280_pressure;Samples;Min_cycle;Max_cycle;Signal;HPM_P1;HPM_P2
2022/08/24 00:00:14;;;;;;;31.63;27.08;;;21.60;99.90;;;;;;5011404;28;20049;-67
2022/08/24 00:02:40;;;;;;;33.10;28.60;;;19.30;99.90;;;;;;5011276;28;20506;-67
2022/08/24 00:05:06;;;;;;;32.15;26.52;;;19.60;99.90;;;;;;5029373;28;20288;-67
2022/08/24 00:07:33;;;;;;;30.83;27.50;;;19.40;99.90;;;;;;5017021;28;20048;-66
2022/08/24 00:09:59;;;;;;;31.02;26.02;;;19.30;99.90;;;;;;5034607;28;20046;-66
2022/08/24 00:12:26;;;;;;;30.55;27.33;;;19.10;99.90;;;;;;5034317;28;20041;-67
2022/08/24 00:14:52;;;;;;;34.33;28.70;;;19.20;99.90;;;;;;5016857;28;20038;-67
2022/08/24 00:17:19;;;;;;;30.52;26.05;;;19.20;99.90;;;;;;5016982;28;20033;-67
2022/08/24 00:19:46;;;;;;;29.80;24.40;;;19.10;99.90;;;;;;5016857;28;20048;-67
2022/08/24 00:22:12;;;;;;;38.65;28.92;;;19.10;99.90;;;;;;5016599;28;20040;-66
2022/08/24 00:24:38;;;;;;;32.15;27.58;;;19.40;99.90;;;;;;5016670;28;20042;-66
2022/08/24 00:27:05;;;;;;;31.58;25.88;;;19.10;99.90;;;;;;5034149;28;20045;-66
2022/08/24 00:29:31;;;;;;;31.27;27.63;;;19.20;99.90;;;;;;5034373;28;20060;-67
2022/08/24 00:31:56;;;;;;;37.15;26.98;;;19.20;99.90;;;;;;5034619;28;20472;-67
2022/08/24 00:34:22;;;;;;;27.25;24.45;;;19.10;99.90;;;;;;5034759;28;20391;-67
2022/08/24 00:36:47;;;;;;;30.10;25.42;;;19.00;99.90;;;;;;5034178;28;20045;-66
2022/08/24 00:39:13;;;;;;;28.02;24.77;;;18.90;99.90;;;;;;5016676;28;20029;-67
2022/08/24 00:41:42;;;;;;;27.70;23.77;;;19.00;99.90;;;;;;5034256;28;20558;-67
2022/08/24 00:44:10;;;;;;;28.23;24.48;;;19.00;99.90;;;;;;5002915;28;20045;-67
2022/08/24 00:46:48;;;;;;;23.50;21.20;;;18.60;99.90;;;;;;5034371;28;20095;-67
2022/08/24 00:49:24;;;;;;;24.05;21.65;;;18.70;99.90;;;;;;5002737;28;20403;-66
2022/08/24 00:52:03;;;;;;;22.10;19.00;;;18.40;99.90;;;;;;5034303;28;20049;-67
2022/08/24 00:54:32;;;;;;;26.13;21.70;;;18.30;99.90;;;;;;5021517;28;20099;-67
2022/08/24 00:57:03;;;;;;;24.10;21.20;;;18.40;99.90;;;;;;5034079;28;20108;-67
2022/08/24 00:59:35;;;;;;;32.08;24.40;;;18.30;99.90;;;;;;4999838;28;20081;-66
2022/08/24 01:02:11;;;;;;;30.15;26.13;;;18.40;99.90;;;;;;5009435;28;20058;-67
2022/08/24 01:04:50;;;;;;;28.93;22.80;;;18.20;99.90;;;;;;4968336;28;1024150;-67
2022/08/24 01:07:16;;;;;;;23.70;21.33;;;18.10;99.90;;;;;;5035313;28;20088;-66
2022/08/24 01:09:41;;;;;;;23.95;21.55;;;18.30;99.90;;;;;;5035346;28;20069;-67
2022/08/24 01:12:08;;;;;;;22.00;19.80;;;18.10;99.90;;;;;;5034718;28;20045;-67
2022/08/24 01:14:34;;;;;;;22.45;18.23;;;18.10;99.90;;;;;;5035117;28;20045;-66
2022/08/24 01:19:49;;;;;;;23.88;21.75;;;18.10;99.90;;;;;;5035027;28;20045;-66
2022/08/24 01:22:28;;;;;;;21.75;19.75;;;18.30;99.90;;;;;;5035093;28;20038;-67
2022/08/24 01:24:54;;;;;;;15.70;14.10;;;18.30;99.90;;;;;;5034830;28;20045;-66
2022/08/24 01:27:20;;;;;;;19.00;17.08;;;18.40;99.90;;;;;;5017120;28;20033;-66
2022/08/24 01:29:46;;;;;;;17.52;15.68;;;18.40;99.90;;;;;;5017010;28;20492;-67
2022/08/24 01:32:12;;;;;;;13.18;11.77;;;18.00;99.90;;;;;;5016801;28;20044;-67
2022/08/24 01:34:38;;;;;;;16.42;14.70;;;18.00;99.90;;;;;;5034560;28;20041;-66
2022/08/24 01:37:08;;;;;;;20.60;18.48;;;17.90;99.90;;;;;;5016587;28;20084;-67
2022/08/24 01:39:41;;;;;;;25.50;21.95;;;17.90;99.90;;;;;;5034389;28;20075;-66
2022/08/24 01:42:07;;;;;;;23.92;21.42;;;18.00;99.90;;;;;;5034670;28;20480;-67
2022/08/24 01:44:36;;;;;;;27.30;23.90;;;17.80;99.90;;;;;;5016656;28;20126;-67
2022/08/24 01:47:05;;;;;;;29.38;26.08;;;17.70;99.90;;;;;;5034346;28;20069;-67
2022/08/24 01:49:33;;;;;;;28.63;25.55;;;18.00;99.90;;;;;;5034484;28;20078;-66
2022/08/24 01:51:59;;;;;;;27.90;24.02;;;18.30;99.90;;;;;;5033947;28;20120;-67
2022/08/24 01:54:26;;;;;;;26.95;23.45;;;18.10;99.90;;;;;;5016340;28;20112;-66
2022/08/24 01:56:52;;;;;;;29.00;25.02;;;17.90;99.90;;;;;;5034002;28;20033;-66
2022/08/24 01:59:19;;;;;;;26.95;23.50;;;18.00;99.90;;;;;;5034039;28;20055;-66
2022/08/24 02:01:48;;;;;;;28.08;23.08;;;18.00;99.90;;;;;;5034032;28;20085;-67
2022/08/24 02:04:14;;;;;;;23.58;21.15;;;17.90;99.90;;;;;;5033584;28;20510;-67
2022/08/24 02:06:40;;;;;;;30.02;26.33;;;17.70;99.90;;;;;;5006956;28;20125;-66
2022/08/24 02:09:06;;;;;;;23.27;20.88;;;17.70;99.90;;;;;;5029306;28;20056;-66
2022/08/24 02:11:32;;;;;;;19.60;17.45;;;17.70;99.90;;;;;;5015880;28;20144;-67
2022/08/24 02:13:58;;;;;;;23.52;20.98;;;17.90;99.90;;;;;;5034102;28;20551;-67
2022/08/24 02:16:25;;;;;;;27.65;22.83;;;17.90;99.90;;;;;;5015908;28;20037;-67
2022/08/24 02:18:51;;;;;;;23.90;21.13;;;17.50;99.90;;;;;;5015883;28;20052;-66
2022/08/24 02:21:16;;;;;;;22.60;20.08;;;17.70;99.90;;;;;;5033454;28;20042;-66
2022/08/24 02:23:42;;;;;;;22.45;20.02;;;17.70;99.90;;;;;;5033783;28;20099;-66
2022/08/24 02:26:10;;;;;;;31.10;24.13;;;17.80;99.90;;;;;;4999506;28;20037;-67
2022/08/24 02:28:37;;;;;;;26.15;21.73;;;17.80;99.90;;;;;;5014895;28;20038;-67
2022/08/24 02:31:04;;;;;;;22.45;20.02;;;17.80;99.90;;;;;;5033670;28;20065;-67
2022/08/24 02:33:31;;;;;;;18.50;16.63;;;17.60;99.90;;;;;;5015764;28;20033;-66
2022/08/24 02:35:57;;;;;;;25.27;18.05;;;17.30;99.90;;;;;;5033850;28;20041;-66
2022/08/24 02:38:22;;;;;;;16.23;14.52;;;17.70;99.90;;;;;;5033357;28;20049;-66
2022/08/24 02:40:48;;;;;;;13.02;11.73;;;19.70;99.90;;;;;;5033128;28;20042;-66
2022/08/24 02:43:14;;;;;;;13.02;9.55;;;17.50;99.90;;;;;;5033268;28;20231;-67
2022/08/24 02:45:43;;;;;;;7.78;6.65;;;17.40;99.90;;;;;;5033236;28;20033;-66
2022/08/24 02:48:09;;;;;;;10.27;9.13;;;17.30;99.90;;;;;;5033084;28;20131;-67
2022/08/24 02:50:44;;;;;;;17.30;15.02;;;17.50;99.90;;;;;;5033065;28;20037;-66
2022/08/24 02:53:12;;;;;;;16.50;14.68;;;17.20;99.90;;;;;;5015477;28;20041;-66
2022/08/24 02:55:40;;;;;;;15.25;13.77;;;17.10;99.90;;;;;;5031923;28;20116;-67
2022/08/24 02:58:07;;;;;;;17.48;14.93;;;16.90;99.90;;;;;;5033085;28;20112;-67
2022/08/24 03:00:35;;;;;;;17.17;15.48;;;17.20;99.90;;;;;;5015389;28;20049;-67
2022/08/24 03:03:01;;;;;;;19.25;16.30;;;17.10;99.90;;;;;;5014800;28;20048;-66
2022/08/24 03:05:27;;;;;;;16.08;14.30;;;17.30;99.90;;;;;;5014954;28;20086;-67
2022/08/24 03:07:54;;;;;;;15.98;13.15;;;17.20;99.90;;;;;;5032621;28;20072;-66
2022/08/24 03:10:20;;;;;;;13.02;11.73;;;17.20;99.90;;;;;;5032726;28;20041;-67
2022/08/24 03:12:46;;;;;;;13.77;12.13;;;16.90;99.90;;;;;;5014809;28;20117;-66
2022/08/24 03:15:12;;;;;;;14.90;13.45;;;17.00;99.90;;;;;;5032878;28;20037;-66
2022/08/24 03:17:39;;;;;;;15.88;14.27;;;17.20;99.90;;;;;;5032294;28;20033;-66
2022/08/24 03:20:09;;;;;;;16.63;14.95;;;17.10;99.90;;;;;;5015105;28;20069;-67
2022/08/24 03:22:36;;;;;;;14.70;13.13;;;17.10;99.90;;;;;;5014820;28;20045;-66
2022/08/24 03:25:02;;;;;;;17.65;14.98;;;16.90;99.90;;;;;;5032871;28;20033;-67
2022/08/24 03:27:28;;;;;;;15.65;14.05;;;17.10;99.90;;;;;;5014842;28;20501;-66
2022/08/24 03:29:53;;;;;;;11.52;10.43;;;16.80;99.90;;;;;;5032094;28;20040;-67
2022/08/24 03:32:19;;;;;;;14.77;13.18;;;16.80;99.90;;;;;;5032381;28;20033;-66
2022/08/24 03:34:45;;;;;;;16.80;14.82;;;16.70;99.90;;;;;;5032278;28;20041;-66
2022/08/24 03:37:11;;;;;;;20.48;17.38;;;16.70;99.90;;;;;;5032211;28;20533;-67
2022/08/24 03:39:37;;;;;;;20.08;17.15;;;16.80;99.90;;;;;;5032454;28;20395;-67
2022/08/24 03:42:03;;;;;;;18.75;16.77;;;16.80;99.90;;;;;;5014469;28;20042;-66
2022/08/24 03:44:29;;;;;;;25.08;18.85;;;16.60;99.90;;;;;;5032222;28;20151;-67
2022/08/24 03:46:54;;;;;;;23.17;18.95;;;16.50;99.90;;;;;;5025319;28;20134;-66
2022/08/24 03:49:20;;;;;;;22.00;17.58;;;16.40;99.90;;;;;;5032225;28;20385;-67
2022/08/24 03:51:46;;;;;;;23.23;18.35;;;16.60;99.90;;;;;;5032290;28;20040;-66
2022/08/24 03:54:13;;;;;;;25.38;18.45;;;16.60;99.90;;;;;;5014548;28;20414;-67
2022/08/24 03:56:38;;;;;;;26.55;20.33;;;16.90;99.90;;;;;;5014206;28;20044;-66
2022/08/24 03:59:06;;;;;;;22.60;17.30;;;17.10;99.90;;;;;;5014373;28;20045;-67
2022/08/24 04:01:32;;;;;;;21.73;17.80;;;16.50;99.90;;;;;;5014304;28;20049;-67
2022/08/24 04:03:58;;;;;;;21.98;17.95;;;16.70;99.90;;;;;;5031761;28;20427;-67
2022/08/24 04:06:24;;;;;;;19.40;17.40;;;16.80;99.90;;;;;;5014352;28;20081;-66
2022/08/24 04:08:51;;;;;;;22.40;18.77;;;16.40;99.90;;;;;;5031932;28;20472;-67
2022/08/24 04:11:19;;;;;;;19.77;16.40;;;16.90;99.90;;;;;;5014109;28;20046;-66
2022/08/24 04:13:46;;;;;;;17.67;15.77;;;16.50;99.90;;;;;;5032097;28;20388;-66
2022/08/24 04:16:18;;;;;;;18.08;15.50;;;16.50;99.90;;;;;;5032158;28;20039;-66
2022/08/24 04:18:44;;;;;;;19.77;17.75;;;16.70;99.90;;;;;;5032016;28;20041;-66
2022/08/24 04:21:35;;;;;;;19.13;16.60;;;16.70;99.90;;;;;;5014026;28;20044;-66
2022/08/24 04:24:02;;;;;;;19.23;15.25;;;16.90;99.90;;;;;;5032054;28;20033;-66
2022/08/24 04:26:29;;;;;;;17.13;15.27;;;16.80;99.90;;;;;;5014165;28;20045;-66
2022/08/24 04:28:55;;;;;;;16.90;14.02;;;16.50;99.90;;;;;;5014210;28;20041;-66
2022/08/24 04:31:22;;;;;;;15.98;14.32;;;16.60;99.90;;;;;;5000537;28;20041;-67
2022/08/24 04:33:48;;;;;;;17.00;15.25;;;16.40;99.90;;;;;;5032003;28;20045;-67
2022/08/24 04:36:16;;;;;;;17.38;15.23;;;16.60;99.90;;;;;;5013942;28;20041;-66
2022/08/24 04:38:41;;;;;;;21.10;17.00;;;16.60;99.90;;;;;;5014078;28;20049;-66
2022/08/24 04:41:13;;;;;;;19.58;17.05;;;16.70;99.90;;;;;;5014107;28;20053;-66
2022/08/24 04:43:44;;;;;;;19.88;14.75;;;16.50;99.90;;;;;;5014270;28;20084;-67
2022/08/24 04:46:14;;;;;;;22.88;18.33;;;16.40;99.90;;;;;;5031541;28;20037;-66
2022/08/24 04:48:40;;;;;;;20.52;16.40;;;16.40;99.90;;;;;;5031701;28;20559;-66
2022/08/24 04:51:07;;;;;;;21.23;19.02;;;16.40;99.90;;;;;;5031412;28;20142;-66
2022/08/24 04:53:33;;;;;;;17.55;15.75;;;16.40;99.90;;;;;;5017602;28;20083;-66
2022/08/24 04:55:59;;;;;;;15.73;14.13;;;16.40;99.90;;;;;;5017619;28;20450;-67
2022/08/24 04:58:26;;;;;;;14.35;11.80;;;16.30;99.90;;;;;;5017569;28;20077;-66
2022/08/24 05:00:51;;;;;;;16.42;14.13;;;16.20;99.90;;;;;;5035244;28;20060;-66
2022/08/24 05:03:18;;;;;;;18.65;15.23;;;16.10;99.90;;;;;;5017189;28;20049;-66
2022/08/24 05:05:46;;;;;;;20.50;17.48;;;16.20;99.90;;;;;;5034858;28;20077;-66
2022/08/24 05:08:12;;;;;;;20.17;15.25;;;16.20;99.90;;;;;;5017170;28;20056;-67
2022/08/24 05:10:41;;;;;;;20.63;15.57;;;16.30;99.90;;;;;;5017189;28;20091;-66
2022/08/24 05:13:07;;;;;;;18.30;16.20;;;16.40;99.90;;;;;;5017310;28;20483;-67
2022/08/24 05:15:34;;;;;;;20.48;17.85;;;16.30;99.90;;;;;;5034750;28;20033;-66
2022/08/24 05:18:01;;;;;;;26.27;17.35;;;16.20;99.90;;;;;;5035019;28;20034;-66
2022/08/24 05:20:27;;;;;;;23.38;19.35;;;16.40;99.90;;;;;;5016895;28;20080;-66
2022/08/24 05:22:53;;;;;;;22.40;17.38;;;16.50;99.90;;;;;;5034959;28;20049;-67
2022/08/24 05:25:20;;;;;;;22.38;19.42;;;16.50;99.90;;;;;;5035159;28;20041;-67
2022/08/24 05:27:46;;;;;;;24.63;19.05;;;16.70;99.90;;;;;;5016834;28;20557;-67
2022/08/24 05:30:12;;;;;;;22.70;18.88;;;16.70;99.90;;;;;;5034520;28;20037;-66
2022/08/24 05:32:38;;;;;;;22.63;16.23;;;16.80;99.90;;;;;;5034749;28;20080;-66
2022/08/24 05:35:05;;;;;;;21.90;17.52;;;17.00;99.90;;;;;;5016700;28;20076;-67
2022/08/24 05:37:34;;;;;;;25.55;18.83;;;16.60;99.90;;;;;;5016627;28;20423;-67
2022/08/24 05:40:02;;;;;;;24.38;18.50;;;16.70;99.90;;;;;;5034794;28;20086;-67
2022/08/24 05:42:28;;;;;;;22.65;17.83;;;16.70;99.90;;;;;;5034361;28;20626;-67
2022/08/24 05:44:53;;;;;;;23.40;17.00;;;17.00;99.90;;;;;;5034230;28;20112;-66
2022/08/24 05:47:19;;;;;;;27.92;20.80;;;17.00;99.90;;;;;;5034162;28;20045;-66
2022/08/24 05:49:44;;;;;;;26.73;22.85;;;17.00;99.90;;;;;;5034303;28;20033;-66
2022/08/24 05:52:10;;;;;;;30.77;24.63;;;17.10;99.90;;;;;;5016341;28;20068;-66
2022/08/24 05:54:36;;;;;;;33.33;25.00;;;17.00;99.90;;;;;;5034433;28;20037;-67
2022/08/24 05:57:03;;;;;;;26.73;22.55;;;17.20;99.90;;;;;;5034223;28;20562;-67
2022/08/24 05:59:29;;;;;;;30.27;24.20;;;17.40;99.90;;;;;;5016236;28;20048;-66
2022/08/24 06:01:55;;;;;;;32.50;26.50;;;17.30;99.90;;;;;;5033397;28;20458;-65
2022/08/24 06:04:21;;;;;;;35.78;28.65;;;17.40;99.90;;;;;;5014906;28;20145;-66
2022/08/24 06:06:47;;;;;;;35.20;29.02;;;17.60;99.90;;;;;;5033377;28;20496;-67
2022/08/24 06:09:13;;;;;;;34.05;27.52;;;17.60;99.90;;;;;;5031181;28;20044;-67
2022/08/24 06:11:40;;;;;;;33.55;28.17;;;17.80;99.90;;;;;;5014806;28;20088;-67
2022/08/24 06:14:10;;;;;;;36.00;29.10;;;18.00;99.90;;;;;;5014303;28;20468;-65
2022/08/24 06:16:40;;;;;;;36.40;27.48;;;17.80;99.90;;;;;;5015341;28;20041;-65
2022/08/24 06:19:07;;;;;;;34.53;27.83;;;18.10;99.90;;;;;;5014262;28;20041;-66
2022/08/24 06:21:33;;;;;;;34.55;29.20;;;18.40;99.90;;;;;;5031848;28;20548;-67
2022/08/24 06:23:59;;;;;;;35.38;30.67;;;18.70;99.90;;;;;;5033364;28;20030;-66
2022/08/24 06:29:10;;;;;;;41.05;34.35;;;19.20;99.90;;;;;;5025137;28;20450;-65
2022/08/24 06:31:42;;;;;;;40.22;31.90;;;19.40;99.90;;;;;;5013817;28;20041;-67
2022/08/24 06:34:09;;;;;;;38.22;33.55;;;19.70;99.90;;;;;;5031638;28;20506;-67
2022/08/24 06:36:35;;;;;;;38.35;32.20;;;19.80;99.90;;;;;;5031396;28;20067;-67
2022/08/24 06:39:01;;;;;;;40.17;31.63;;;19.80;99.90;;;;;;5013063;28;20483;-64
2022/08/24 06:41:26;;;;;;;36.60;29.70;;;20.00;99.90;;;;;;5030759;28;20045;-66
2022/08/24 06:43:52;;;;;;;30.52;26.90;;;20.30;99.90;;;;;;5012035;28;20128;-66
2022/08/24 06:46:18;;;;;;;30.10;25.08;;;20.80;99.90;;;;;;5011172;28;20045;-66
2022/08/24 06:48:44;;;;;;;30.52;25.83;;;20.80;99.90;;;;;;5026113;28;20045;-66
2022/08/24 06:51:12;;;;;;;31.38;25.80;;;21.00;99.90;;;;;;5028188;28;20455;-66
2022/08/24 06:53:39;;;;;;;29.25;24.60;;;21.00;99.90;;;;;;5028587;28;20052;-66
2022/08/24 06:56:05;;;;;;;31.45;25.67;;;22.40;99.90;;;;;;5030754;28;20403;-65
2022/08/24 06:58:31;;;;;;;27.65;22.70;;;21.30;99.90;;;;;;5029394;28;20041;-66
2022/08/24 07:00:58;;;;;;;24.63;22.00;;;21.20;99.90;;;;;;5026578;28;20052;-65
2022/08/24 07:03:24;;;;;;;25.77;21.83;;;21.60;99.90;;;;;;5024117;28;20054;-66
2022/08/24 07:05:51;;;;;;;25.63;21.88;;;21.70;99.90;;;;;;5010344;28;20132;-66
2022/08/24 07:08:18;;;;;;;24.65;19.85;;;21.90;99.90;;;;;;5016472;28;20400;-65
2022/08/24 07:10:44;;;;;;;23.33;20.08;;;21.60;99.90;;;;;;5028151;28;20037;-67
2022/08/24 07:13:11;;;;;;;24.38;19.63;;;21.80;99.90;;;;;;5030441;28;20040;-66
2022/08/24 07:15:37;;;;;;;27.98;19.75;;;22.00;99.90;;;;;;5030178;28;20138;-66
2022/08/24 07:18:02;;;;;;;23.27;19.52;;;22.00;99.90;;;;;;5009573;28;20084;-66
2022/08/24 07:20:31;;;;;;;25.55;19.42;;;22.10;99.90;;;;;;5013159;28;20045;-66
2022/08/24 07:22:56;;;;;;;21.60;19.23;;;22.10;99.90;;;;;;5012294;28;20048;-66
2022/08/24 07:25:22;;;;;;;20.60;17.08;;;21.90;99.90;;;;;;5024995;28;20053;-66
2022/08/24 07:27:48;;;;;;;22.48;17.08;;;22.20;99.90;;;;;;5031037;28;20042;-66
2022/08/24 07:30:15;;;;;;;21.55;17.02;;;22.40;99.90;;;;;;5031568;28;20045;-67
2022/08/24 07:32:41;;;;;;;19.55;15.27;;;22.10;99.90;;;;;;5030462;28;20033;-66
2022/08/24 07:35:07;;;;;;;17.98;16.10;;;22.60;99.90;;;;;;5031508;28;20495;-67
2022/08/24 07:37:32;;;;;;;20.95;15.38;;;22.40;99.90;;;;;;5013108;28;20048;-66
2022/08/24 07:39:58;;;;;;;19.80;14.20;;;23.30;99.90;;;;;;5012850;28;20399;-66
2022/08/24 07:42:24;;;;;;;15.93;13.75;;;22.80;99.90;;;;;;5013116;28;20041;-66
2022/08/24 07:44:50;;;;;;;15.63;12.82;;;22.60;99.90;;;;;;5012942;28;20037;-67
2022/08/24 07:47:16;;;;;;;19.00;12.93;;;24.90;99.90;;;;;;5012413;28;20044;-67
2022/08/24 07:49:42;;;;;;;20.27;10.27;;;22.90;99.90;;;;;;5015608;28;20539;-67
2022/08/24 07:52:09;;;;;;;14.20;9.77;;;22.90;99.90;;;;;;5012806;28;20129;-66
2022/08/24 07:54:35;;;;;;;13.38;9.68;;;23.00;99.90;;;;;;5030475;28;20092;-67
2022/08/24 07:57:05;;;;;;;15.52;9.52;;;24.50;99.90;;;;;;5016190;28;20049;-67
2022/08/24 07:59:31;;;;;;;14.52;9.40;;;23.20;99.90;;;;;;5024998;28;20060;-67
2022/08/24 08:01:57;;;;;;;11.40;7.80;;;23.40;99.90;;;;;;5029469;28;20076;-68
2022/08/24 08:04:24;;;;;;;11.93;7.32;;;25.30;99.90;;;;;;5007639;28;20061;-67
2022/08/24 08:06:51;;;;;;;16.58;9.02;;;23.30;99.90;;;;;;5014918;28;20052;-67
2022/08/24 08:09:18;;;;;;;12.82;7.70;;;24.20;99.90;;;;;;5030792;28;20033;-67
2022/08/24 08:11:44;;;;;;;13.52;7.75;;;23.30;99.90;;;;;;5026803;28;20044;-67
2022/08/24 08:14:09;;;;;;;17.67;8.50;;;23.70;99.90;;;;;;5030763;28;20442;-67
2022/08/24 08:16:37;;;;;;;13.18;9.20;;;24.60;99.90;;;;;;5030815;28;20553;-67
2022/08/24 08:19:03;;;;;;;14.27;9.38;;;23.60;99.90;;;;;;5013693;28;20491;-68
2022/08/24 08:24:16;;;;;;;12.97;8.80;;;23.70;99.90;;;;;;5010480;28;20049;-67
2022/08/24 08:26:49;;;;;;;12.15;9.10;;;24.00;99.90;;;;;;5024840;28;20038;-68
2022/08/24 08:29:17;;;;;;;10.85;8.60;;;24.00;99.90;;;;;;5016676;28;20457;-67
2022/08/24 08:31:42;;;;;;;13.63;8.35;;;24.90;99.90;;;;;;5017044;28;20037;-67
2022/08/24 08:34:09;;;;;;;16.00;8.85;;;24.10;99.90;;;;;;5016831;28;20479;-67
2022/08/24 08:36:38;;;;;;;15.52;7.57;;;24.50;99.90;;;;;;5016522;28;20140;-67
2022/08/24 08:39:05;;;;;;;14.43;8.88;;;24.10;99.90;;;;;;5017132;28;20488;-67
2022/08/24 08:41:57;;;;;;;11.25;6.53;;;24.40;99.90;;;;;;5018102;28;20045;-67
2022/08/24 08:44:52;;;;;;;10.32;6.78;;;24.70;99.90;;;;;;5034270;28;20048;-66
2022/08/24 08:47:43;;;;;;;11.52;7.20;;;24.70;99.90;;;;;;5010188;28;20049;-67
2022/08/24 08:50:27;;;;;;;13.13;7.80;;;24.60;99.90;;;;;;5023186;28;20065;-66
2022/08/24 08:53:17;;;;;;;12.55;7.40;;;25.00;99.90;;;;;;5007248;28;20045;-67
2022/08/24 08:55:51;;;;;;;8.02;5.28;;;25.20;99.90;;;;;;5013630;28;20142;-68
2022/08/24 08:58:30;;;;;;;8.57;4.20;;;24.90;99.90;;;;;;5016346;28;20475;-69
2022/08/24 09:01:06;;;;;;;7.03;4.45;;;25.20;99.90;;;;;;5030848;28;20040;-67
2022/08/24 09:04:07;;;;;;;5.05;3.25;;;25.50;99.90;;;;;;5014756;28;20049;-68
2022/08/24 09:06:44;;;;;;;4.57;2.40;;;25.20;99.90;;;;;;4985176;28;20514;-68
2022/08/24 09:09:30;;;;;;;5.18;3.22;;;25.50;99.90;;;;;;5032834;28;20038;-67
2022/08/24 09:12:22;;;;;;;4.25;3.20;;;25.70;99.90;;;;;;5012784;28;20479;-67
2022/08/24 09:15:05;;;;;;;5.22;2.53;;;25.70;99.90;;;;;;5015253;28;20377;-68
2022/08/24 09:17:54;;;;;;;15.80;2.38;;;25.80;99.90;;;;;;5016215;28;20372;-67
2022/08/24 09:20:48;;;;;;;4.03;2.90;;;25.90;99.90;;;;;;4990509;28;20041;-67
2022/08/24 09:23:32;;;;;;;6.25;2.38;;;25.80;99.90;;;;;;5028420;28;20030;-68
2022/08/24 09:26:35;;;;;;;3.65;2.20;;;26.10;99.90;;;;;;5016527;28;20033;-70
2022/08/24 09:29:30;;;;;;;5.32;1.88;;;26.30;99.90;;;;;;5010302;28;20045;-66
2022/08/24 09:32:34;;;;;;;4.78;2.00;;;26.40;99.90;;;;;;5015369;28;20095;-67
2022/08/24 09:35:08;;;;;;;5.90;1.80;;;26.30;99.90;;;;;;5033182;28;20132;-67
2022/08/24 09:38:06;;;;;;;6.13;2.28;;;26.70;99.90;;;;;;5032622;28;20108;-68
2022/08/24 09:40:31;;;;;;;7.07;2.08;;;26.70;99.90;;;;;;5033086;28;20038;-67
2022/08/24 09:43:37;;;;;;;3.60;1.80;;;27.60;99.90;;;;;;5016832;28;20102;-67
2022/08/24 09:46:35;;;;;;;3.63;1.65;;;26.80;99.90;;;;;;5033236;28;20064;-67
2022/08/24 09:49:23;;;;;;;3.42;1.48;;;27.10;99.90;;;;;;4999105;28;20115;-66
2022/08/24 09:51:57;;;;;;;4.57;1.75;;;27.30;99.90;;;;;;5011567;28;20499;-66
2022/08/24 09:54:45;;;;;;;6.57;2.03;;;27.50;99.90;;;;;;5019115;28;20056;-66
2022/08/24 09:57:27;;;;;;;5.22;1.88;;;27.70;99.90;;;;;;5021797;28;20079;-66
2022/08/24 10:00:17;;;;;;;3.42;1.75;;;27.40;99.90;;;;;;5032336;28;20041;-66
2022/08/24 10:03:07;;;;;;;3.65;1.60;;;27.70;99.90;;;;;;5008008;28;20072;-67
2022/08/24 10:05:48;;;;;;;4.72;1.05;;;27.70;99.90;;;;;;5014994;28;20053;-67
2022/08/24 10:08:32;;;;;;;3.50;1.05;;;27.50;99.90;;;;;;5032648;28;20128;-67
2022/08/24 10:11:17;;;;;;;2.45;1.23;;;29.20;99.90;;;;;;5019182;28;20041;-67
2022/08/24 10:14:14;;;;;;;5.82;1.50;;;27.80;99.90;;;;;;5033138;28;20045;-66
2022/08/24 10:17:06;;;;;;;5.05;1.13;;;27.60;99.90;;;;;;5031897;28;20056;-66
2022/08/24 10:19:46;;;;;;;4.50;1.27;;;27.90;99.90;;;;;;4972282;28;20050;-66
2022/08/24 10:22:48;;;;;;;3.00;1.10;;;27.90;99.90;;;;;;5031937;28;20091;-65
2022/08/24 10:25:29;;;;;;;5.03;1.92;;;28.00;99.90;;;;;;5024820;28;20049;-65
2022/08/24 10:28:13;;;;;;;4.68;2.05;;;28.00;99.90;;;;;;5032334;28;20049;-66
2022/08/24 10:31:11;;;;;;;2.10;0.70;;;27.90;99.90;;;;;;5013927;28;20041;-64
2022/08/24 10:34:14;;;;;;;2.40;0.70;;;28.00;99.90;;;;;;5031704;28;20426;-65
2022/08/24 10:37:04;;;;;;;0.95;0.47;;;27.90;99.90;;;;;;5018533;28;20045;-65
2022/08/24 10:40:00;;;;;;;2.88;1.20;;;27.70;99.90;;;;;;5011735;28;20466;-65
2022/08/24 10:46:23;;;;;;;3.47;0.95;;;27.80;99.90;;;;;;4971998;28;21046;-64
2022/08/24 10:49:15;;;;;;;2.60;0.75;;;27.60;99.90;;;;;;4987940;28;20038;-64
2022/08/24 10:52:11;;;;;;;1.75;0.75;;;27.80;99.90;;;;;;4993651;28;20480;-65
2022/08/24 10:54:37;;;;;;;2.72;0.82;;;28.00;99.90;;;;;;5032169;28;20377;-65
2022/08/24 10:57:14;;;;;;;1.80;0.90;;;27.90;99.90;;;;;;5014182;28;20044;-64
2022/08/24 11:00:13;;;;;;;13.27;5.72;;;29.00;99.90;;;;;;5013832;28;20037;-65
2022/08/24 11:02:42;;;;;;;2.03;0.98;;;27.80;99.90;;;;;;5016238;28;20114;-65
2022/08/24 11:05:28;;;;;;;3.70;1.00;;;27.70;99.90;;;;;;5031651;28;20118;-64
2022/08/24 11:07:55;;;;;;;5.00;1.02;;;27.60;99.90;;;;;;5031612;28;20058;-65
2022/08/24 11:10:27;;;;;;;2.90;0.68;;;27.80;99.90;;;;;;5009988;28;20120;-66
2022/08/24 11:12:53;;;;;;;1.70;0.55;;;27.80;99.90;;;;;;4999300;28;20096;-66
2022/08/24 11:15:27;;;;;;;4.00;0.90;;;28.10;99.90;;;;;;5010781;28;20037;-66
2022/08/24 11:17:57;;;;;;;1.45;0.60;;;28.00;99.90;;;;;;5024806;28;20104;-66
2022/08/24 11:20:33;;;;;;;4.97;0.98;;;27.80;99.90;;;;;;5013044;28;20044;-65
2022/08/24 11:23:01;;;;;;;1.63;0.50;;;27.90;99.90;;;;;;5027827;28;20048;-66
2022/08/24 11:25:31;;;;;;;1.85;0.70;;;29.00;99.90;;;;;;5008201;28;20050;-65
2022/08/24 11:28:09;;;;;;;2.08;0.65;;;28.00;99.90;;;;;;5021174;28;20049;-66
2022/08/24 11:30:39;;;;;;;1.15;0.52;;;27.70;99.90;;;;;;5015460;28;20057;-66
2022/08/24 11:33:23;;;;;;;1.50;0.47;;;27.90;99.90;;;;;;4996584;28;20042;-66
2022/08/24 11:35:48;;;;;;;1.50;0.32;;;27.90;99.90;;;;;;5015727;28;20050;-66
2022/08/24 11:38:15;;;;;;;2.83;0.70;;;27.80;99.90;;;;;;5012092;28;20045;-66
2022/08/24 11:40:54;;;;;;;1.00;0.52;;;29.30;99.90;;;;;;5020773;28;20052;-65
2022/08/24 11:43:47;;;;;;;1.95;0.50;;;27.40;99.90;;;;;;5025726;28;20037;-66
2022/08/24 11:46:21;;;;;;;1.08;0.38;;;27.70;99.90;;;;;;5009859;28;20041;-66
2022/08/24 11:49:02;;;;;;;;;;;28.10;99.90;;;;;;5014308;28;20487;-67
2022/08/24 11:51:37;;;;;;;1.20;0.40;;;27.90;99.90;;;;;;5028756;28;19920;-66
2022/08/24 11:54:02;;;;;;;3.85;0.57;;;27.90;99.90;;;;;;5009034;28;20072;-64
2022/08/24 11:56:43;;;;;;;1.30;0.40;;;28.00;99.90;;;;;;5011987;28;20124;-64
2022/08/24 11:59:52;;;;;;;3.28;0.40;;;28.30;99.90;;;;;;5012977;28;20049;-66
2022/08/24 12:02:24;;;;;;;2.88;0.60;;;28.20;99.90;;;;;;5022391;28;20041;-65
2022/08/24 12:04:54;;;;;;;2.33;0.70;;;28.40;99.90;;;;;;5020833;28;20045;-65
2022/08/24 12:07:40;;;;;;;2.42;0.73;;;28.30;99.90;;;;;;5030262;28;20049;-65
2022/08/24 12:10:14;;;;;;;0.90;0.20;;;28.30;99.90;;;;;;5030331;28;20084;-65
2022/08/24 12:13:02;;;;;;;2.22;0.43;;;28.20;99.90;;;;;;5032079;28;20376;-65
2022/08/24 12:16:07;;;;;;;0.95;0.40;;;28.00;99.90;;;;;;5018385;28;20109;-65
2022/08/24 12:18:54;;;;;;;1.55;0.38;;;28.10;99.90;;;;;;5015193;28;20095;-67
2022/08/24 12:21:24;;;;;;;3.33;0.43;;;28.10;99.90;;;;;;5008249;28;20049;-65
2022/08/24 12:24:03;;;;;;;1.23;0.40;;;28.20;99.90;;;;;;5034205;28;20091;-65
2022/08/24 12:26:37;;;;;;;3.90;0.63;;;28.20;99.90;;;;;;5034969;28;20045;-66
2022/08/24 12:29:14;;;;;;;5.18;0.70;;;29.50;99.90;;;;;;5034176;28;20132;-65
2022/08/24 12:31:57;;;;;;;1.80;0.82;;;28.40;99.90;;;;;;5002966;28;20449;-65
2022/08/24 12:34:47;;;;;;;1.77;0.82;;;28.40;99.90;;;;;;5028378;28;20040;-66
2022/08/24 12:37:31;;;;;;;3.80;0.60;;;28.60;99.90;;;;;;5014830;28;20041;-65
2022/08/24 12:40:23;;;;;;;1.88;0.50;;;28.60;99.90;;;;;;5022192;28;20072;-66
2022/08/24 12:42:59;;;;;;;1.80;0.50;;;28.40;99.90;;;;;;5004176;28;20057;-65
2022/08/24 12:45:25;;;;;;;1.58;0.50;;;28.30;99.90;;;;;;5015593;28;20420;-66
2022/08/24 12:48:00;;;;;;;1.50;0.52;;;30.20;99.90;;;;;;5030654;28;20574;-66
2022/08/24 12:50:34;;;;;;;2.15;0.60;;;28.60;99.90;;;;;;5030589;28;20051;-65
2022/08/24 12:53:28;;;;;;;2.65;0.50;;;29.20;99.90;;;;;;5030860;28;20060;-66
2022/08/24 12:55:57;;;;;;;1.17;0.40;;;28.60;99.90;;;;;;5013798;28;20053;-67
2022/08/24 12:58:59;;;;;;;3.17;0.70;;;28.90;99.90;;;;;;5030940;28;20132;-65
2022/08/24 13:01:32;;;;;;;1.88;0.63;;;28.80;99.90;;;;;;5021953;28;20045;-66
2022/08/24 13:04:12;;;;;;;1.40;0.45;;;29.00;99.90;;;;;;5014136;28;20534;-66
2022/08/24 13:06:42;;;;;;;0.75;0.32;;;28.70;99.90;;;;;;5030837;28;20419;-65
2022/08/24 13:09:27;;;;;;;1.50;0.50;;;28.50;99.90;;;;;;5030973;28;20194;-66